sensor_id;sensor_type;location;lat;lon;timestamp;temperature;humidity
31747;DHT22;18319;48.974;8.462;2023-03-14T00:02:25;10.90;99.90
31747;DHT22;18319;48.974;8.462;2023-03-14T00:04:54;10.80;99.90
31747;DHT22;18319;48.974;8.462;2023-03-14T00:07:21;10.80;99.90
31747;DHT22;18319;48.974;8.462;2023-03-14T00:09:49;10.80;99.90
31747;DHT22;18319;48.974;8.462;2023-03-14T00:12:18;10.80;99.90
31747;DHT22;18319;48.974;8.462;2023-03-14T00:14:44;10.80;99.90
31747;DHT22;18319;48.974;8.462;2023-03-14T00:17:11;10.90;99.90
31747;DHT22;18319;48.974;8.462;2023-03-14T00:19:39;10.90;99.90
31747;DHT22;18319;48.974;8.462;2023-03-14T00:22:06;11.00;99.90
31747;DHT22;18319;48.974;8.462;2023-03-14T00:24:33;11.00;99.90
31747;DHT22;18319;48.974;8.462;2023-03-14T00:27:00;11.00;99.90
31747;DHT22;18319;48.974;8.462;2023-03-14T00:29:28;11.00;99.90
31747;DHT22;18319;48.974;8.462;2023-03-14T00:31:54;11.00;99.90
31747;DHT22;18319;48.974;8.462;2023-03-14T00:34:21;10.90;99.90
31747;DHT22;18319;48.974;8.462;2023-03-14T00:36:48;10.90;99.90
31747;DHT22;18319;48.974;8.462;2023-03-14T00:39:15;11.00;99.90
31747;DHT22;18319;48.974;8.462;2023-03-14T00:41:41;11.10;99.90
31747;DHT22;18319;48.974;8.462;2023-03-14T00:44:08;11.00;99.90
31747;DHT22;18319;48.974;8.462;2023-03-14T00:46:36;11.10;99.90
31747;DHT22;18319;48.974;8.462;2023-03-14T00:49:03;11.10;99.90
31747;DHT22;18319;48.974;8.462;2023-03-14T00:51:30;11.10;99.90
31747;DHT22;18319;48.974;8.462;2023-03-14T00:53:57;11.20;99.90
31747;DHT22;18319;48.974;8.462;2023-03-14T00:56:23;11.20;99.90
31747;DHT22;18319;48.974;8.462;2023-03-14T00:58:53;11.30;99.90
31747;DHT22;18319;48.974;8.462;2023-03-14T01:01:20;11.30;99.90
31747;DHT22;18319;48.974;8.462;2023-03-14T01:03:51;11.30;99.90
31747;DHT22;18319;48.974;8.462;2023-03-14T01:06:20;11.30;99.90
31747;DHT22;18319;48.974;8.462;2023-03-14T01:08:47;11.20;99.90
31747;DHT22;18319;48.974;8.462;2023-03-14T01:11:16;11.20;99.90
31747;DHT22;18319;48.974;8.462;2023-03-14T01:13:43;11.20;99.90
31747;DHT22;18319;48.974;8.462;2023-03-14T01:16:11;11.20;99.90
31747;DHT22;18319;48.974;8.462;2023-03-14T01:18:40;11.20;99.90
31747;DHT22;18319;48.974;8.462;2023-03-14T01:21:12;11.20;99.90
31747;DHT22;18319;48.974;8.462;2023-03-14T01:23:40;11.30;99.90
31747;DHT22;18319;48.974;8.462;2023-03-14T01:26:08;11.30;99.90
31747;DHT22;18319;48.974;8.462;2023-03-14T01:28:35;11.30;99.90
31747;DHT22;18319;48.974;8.462;2023-03-14T01:31:03;11.20;99.90
31747;DHT22;18319;48.974;8.462;2023-03-14T01:33:30;11.10;99.90
31747;DHT22;18319;48.974;8.462;2023-03-14T01:35:57;11.00;99.90
31747;DHT22;18319;48.974;8.462;2023-03-14T01:38:25;10.90;99.90
31747;DHT22;18319;48.974;8.462;2023-03-14T01:40:52;10.90;99.90
31747;DHT22;18319;48.974;8.462;2023-03-14T01:43:19;11.00;99.90
31747;DHT22;18319;48.974;8.462;2023-03-14T01:49:09;10.90;99.90
31747;DHT22;18319;48.974;8.462;2023-03-14T01:51:42;10.80;99.90
31747;DHT22;18319;48.974;8.462;2023-03-14T01:54:16;10.70;99.90
31747;DHT22;18319;48.974;8.462;2023-03-14T01:56:48;10.70;99.90
31747;DHT22;18319;48.974;8.462;2023-03-14T01:59:16;10.60;99.90
31747;DHT22;18319;48.974;8.462;2023-03-14T02:01:44;10.60;99.90
31747;DHT22;18319;48.974;8.462;2023-03-14T02:04:14;10.60;99.90
31747;DHT22;18319;48.974;8.462;2023-03-14T02:06:50;10.50;99.90
31747;DHT22;18319;48.974;8.462;2023-03-14T02:09:18;10.50;99.90
31747;DHT22;18319;48.974;8.462;2023-03-14T02:11:45;10.40;99.90
31747;DHT22;18319;48.974;8.462;2023-03-14T02:14:20;10.40;99.90
31747;DHT22;18319;48.974;8.462;2023-03-14T02:16:48;10.40;99.90
31747;DHT22;18319;48.974;8.462;2023-03-14T02:19:20;10.30;99.90
31747;DHT22;18319;48.974;8.462;2023-03-14T02:21:53;10.30;99.90
31747;DHT22;18319;48.974;8.462;2023-03-14T02:24:30;10.30;99.90
31747;DHT22;18319;48.974;8.462;2023-03-14T02:27:12;10.30;99.90
31747;DHT22;18319;48.974;8.462;2023-03-14T02:29:45;10.20;99.90
31747;DHT22;18319;48.974;8.462;2023-03-14T02:32:15;10.30;99.90
31747;DHT22;18319;48.974;8.462;2023-03-14T02:34:47;10.40;99.90
31747;DHT22;18319;48.974;8.462;2023-03-14T02:37:15;10.40;99.90
31747;DHT22;18319;48.974;8.462;2023-03-14T02:39:44;10.30;99.90
31747;DHT22;18319;48.974;8.462;2023-03-14T02:42:12;10.30;99.90
31747;DHT22;18319;48.974;8.462;2023-03-14T02:44:48;10.30;99.90
31747;DHT22;18319;48.974;8.462;2023-03-14T02:47:16;10.20;99.90
31747;DHT22;18319;48.974;8.462;2023-03-14T02:49:45;10.20;99.90
31747;DHT22;18319;48.974;8.462;2023-03-14T02:52:13;10.20;99.90
31747;DHT22;18319;48.974;8.462;2023-03-14T02:54:39;10.20;99.90
31747;DHT22;18319;48.974;8.462;2023-03-14T02:57:06;10.20;99.90
31747;DHT22;18319;48.974;8.462;2023-03-14T02:59:34;10.10;99.90
31747;DHT22;18319;48.974;8.462;2023-03-14T03:02:01;10.10;99.90
31747;DHT22;18319;48.974;8.462;2023-03-14T03:04:29;10.00;99.90
31747;DHT22;18319;48.974;8.462;2023-03-14T03:06:56;10.00;99.90
31747;DHT22;18319;48.974;8.462;2023-03-14T03:09:22;10.00;99.90
31747;DHT22;18319;48.974;8.462;2023-03-14T03:11:49;10.00;99.90
31747;DHT22;18319;48.974;8.462;2023-03-14T03:14:16;10.10;99.90
31747;DHT22;18319;48.974;8.462;2023-03-14T03:16:44;10.00;99.90
31747;DHT22;18319;48.974;8.462;2023-03-14T03:19:11;10.00;99.90
31747;DHT22;18319;48.974;8.462;2023-03-14T03:21:39;10.00;99.90
31747;DHT22;18319;48.974;8.462;2023-03-14T03:24:05;10.00;99.90
31747;DHT22;18319;48.974;8.462;2023-03-14T03:26:33;10.00;99.90
31747;DHT22;18319;48.974;8.462;2023-03-14T03:29:00;10.00;99.90
31747;DHT22;18319;48.974;8.462;2023-03-14T03:31:27;9.90;99.90
31747;DHT22;18319;48.974;8.462;2023-03-14T03:33:56;10.00;99.90
31747;DHT22;18319;48.974;8.462;2023-03-14T03:36:24;10.00;99.90
31747;DHT22;18319;48.974;8.462;2023-03-14T03:38:51;10.10;99.90
31747;DHT22;18319;48.974;8.462;2023-03-14T03:41:18;10.10;99.90
31747;DHT22;18319;48.974;8.462;2023-03-14T03:43:45;10.10;99.90
31747;DHT22;18319;48.974;8.462;2023-03-14T03:46:11;10.30;99.90
31747;DHT22;18319;48.974;8.462;2023-03-14T03:48:38;10.30;99.90
31747;DHT22;18319;48.974;8.462;2023-03-14T03:51:07;10.30;99.90
31747;DHT22;18319;48.974;8.462;2023-03-14T03:53:34;10.20;99.90
31747;DHT22;18319;48.974;8.462;2023-03-14T03:56:00;10.20;99.90
31747;DHT22;18319;48.974;8.462;2023-03-14T03:58:27;10.20;99.90
31747;DHT22;18319;48.974;8.462;2023-03-14T04:00:54;10.30;99.90
31747;DHT22;18319;48.974;8.462;2023-03-14T04:03:21;10.30;99.90
31747;DHT22;18319;48.974;8.462;2023-03-14T04:05:58;10.30;99.90
31747;DHT22;18319;48.974;8.462;2023-03-14T04:08:26;10.30;99.90
31747;DHT22;18319;48.974;8.462;2023-03-14T04:10:55;10.20;99.90
31747;DHT22;18319;48.974;8.462;2023-03-14T04:13:22;10.30;99.90
31747;DHT22;18319;48.974;8.462;2023-03-14T04:15:49;10.40;99.90
31747;DHT22;18319;48.974;8.462;2023-03-14T04:18:16;10.30;99.90
31747;DHT22;18319;48.974;8.462;2023-03-14T04:20:43;10.20;99.90
31747;DHT22;18319;48.974;8.462;2023-03-14T04:23:09;10.20;99.90
31747;DHT22;18319;48.974;8.462;2023-03-14T04:25:38;10.20;99.90
31747;DHT22;18319;48.974;8.462;2023-03-14T04:28:04;10.10;99.90
31747;DHT22;18319;48.974;8.462;2023-03-14T04:30:31;10.00;99.90
31747;DHT22;18319;48.974;8.462;2023-03-14T04:32:58;10.00;99.90
31747;DHT22;18319;48.974;8.462;2023-03-14T04:35:25;9.90;99.90
31747;DHT22;18319;48.974;8.462;2023-03-14T04:37:51;9.90;99.90
31747;DHT22;18319;48.974;8.462;2023-03-14T04:40:18;9.80;99.90
31747;DHT22;18319;48.974;8.462;2023-03-14T04:42:46;9.80;99.90
31747;DHT22;18319;48.974;8.462;2023-03-14T04:45:13;9.80;99.90
31747;DHT22;18319;48.974;8.462;2023-03-14T04:47:40;9.80;99.90
31747;DHT22;18319;48.974;8.462;2023-03-14T04:50:08;9.80;99.90
31747;DHT22;18319;48.974;8.462;2023-03-14T04:52:35;9.90;99.90
31747;DHT22;18319;48.974;8.462;2023-03-14T04:55:02;9.80;99.90
31747;DHT22;18319;48.974;8.462;2023-03-14T04:57:28;9.90;99.90
31747;DHT22;18319;48.974;8.462;2023-03-14T04:59:57;10.00;99.90
31747;DHT22;18319;48.974;8.462;2023-03-14T05:02:23;10.10;99.90
31747;DHT22;18319;48.974;8.462;2023-03-14T05:04:50;10.30;99.90
31747;DHT22;18319;48.974;8.462;2023-03-14T05:07:17;10.40;99.90
31747;DHT22;18319;48.974;8.462;2023-03-14T05:09:44;10.40;99.90
31747;DHT22;18319;48.974;8.462;2023-03-14T05:12:10;10.50;99.90
31747;DHT22;18319;48.974;8.462;2023-03-14T05:14:37;10.50;99.90
31747;DHT22;18319;48.974;8.462;2023-03-14T05:17:06;10.60;99.90
31747;DHT22;18319;48.974;8.462;2023-03-14T05:19:32;10.70;99.90
31747;DHT22;18319;48.974;8.462;2023-03-14T05:21:59;10.70;99.90
31747;DHT22;18319;48.974;8.462;2023-03-14T05:24:26;10.70;99.90
31747;DHT22;18319;48.974;8.462;2023-03-14T05:26:53;10.80;99.90
31747;DHT22;18319;48.974;8.462;2023-03-14T05:29:20;10.80;99.90
31747;DHT22;18319;48.974;8.462;2023-03-14T05:31:46;10.70;99.90
31747;DHT22;18319;48.974;8.462;2023-03-14T05:34:15;10.70;99.90
31747;DHT22;18319;48.974;8.462;2023-03-14T05:36:42;10.70;99.90
31747;DHT22;18319;48.974;8.462;2023-03-14T05:39:08;10.70;99.90
31747;DHT22;18319;48.974;8.462;2023-03-14T05:41:35;10.70;99.90
31747;DHT22;18319;48.974;8.462;2023-03-14T05:44:02;10.60;99.90
31747;DHT22;18319;48.974;8.462;2023-03-14T05:46:29;10.50;99.90
31747;DHT22;18319;48.974;8.462;2023-03-14T05:48:56;10.50;99.90
31747;DHT22;18319;48.974;8.462;2023-03-14T05:51:25;10.40;99.90
31747;DHT22;18319;48.974;8.462;2023-03-14T05:53:52;10.30;99.90
31747;DHT22;18319;48.974;8.462;2023-03-14T05:56:19;10.20;99.90
31747;DHT22;18319;48.974;8.462;2023-03-14T05:58:45;10.10;99.90
31747;DHT22;18319;48.974;8.462;2023-03-14T06:01:12;10.00;99.90
31747;DHT22;18319;48.974;8.462;2023-03-14T06:03:39;9.90;99.90
31747;DHT22;18319;48.974;8.462;2023-03-14T06:06:06;9.90;99.90
31747;DHT22;18319;48.974;8.462;2023-03-14T06:08:34;9.80;99.90
31747;DHT22;18319;48.974;8.462;2023-03-14T06:11:03;9.70;99.90
31747;DHT22;18319;48.974;8.462;2023-03-14T06:13:30;9.80;99.90
31747;DHT22;18319;48.974;8.462;2023-03-14T06:15:57;9.80;99.90
31747;DHT22;18319;48.974;8.462;2023-03-14T06:18:24;9.80;99.90
31747;DHT22;18319;48.974;8.462;2023-03-14T06:20:53;9.70;99.90
31747;DHT22;18319;48.974;8.462;2023-03-14T06:23:20;9.70;99.90
31747;DHT22;18319;48.974;8.462;2023-03-14T06:25:49;9.70;99.90
31747;DHT22;18319;48.974;8.462;2023-03-14T06:28:16;9.80;99.90
31747;DHT22;18319;48.974;8.462;2023-03-14T06:30:42;9.80;99.90
31747;DHT22;18319;48.974;8.462;2023-03-14T06:33:09;9.80;99.90
31747;DHT22;18319;48.974;8.462;2023-03-14T06:35:36;9.80;99.90
31747;DHT22;18319;48.974;8.462;2023-03-14T06:38:03;10.00;99.90
31747;DHT22;18319;48.974;8.462;2023-03-14T06:40:30;10.20;99.90
31747;DHT22;18319;48.974;8.462;2023-03-14T06:42:58;10.30;99.90
31747;DHT22;18319;48.974;8.462;2023-03-14T06:45:25;10.50;99.90
31747;DHT22;18319;48.974;8.462;2023-03-14T06:47:52;10.70;99.90
31747;DHT22;18319;48.974;8.462;2023-03-14T06:50:19;10.80;99.90
31747;DHT22;18319;48.974;8.462;2023-03-14T06:52:47;10.90;99.90
31747;DHT22;18319;48.974;8.462;2023-03-14T06:55:14;11.00;99.90
31747;DHT22;18319;48.974;8.462;2023-03-14T06:57:41;11.10;99.90
31747;DHT22;18319;48.974;8.462;2023-03-14T07:00:12;11.20;99.90
31747;DHT22;18319;48.974;8.462;2023-03-14T07:02:40;11.30;99.90
31747;DHT22;18319;48.974;8.462;2023-03-14T07:05:07;11.30;99.90
31747;DHT22;18319;48.974;8.462;2023-03-14T07:07:36;11.40;99.90
31747;DHT22;18319;48.974;8.462;2023-03-14T07:10:03;11.40;99.90
31747;DHT22;18319;48.974;8.462;2023-03-14T07:12:30;11.50;99.90
31747;DHT22;18319;48.974;8.462;2023-03-14T07:14:57;11.60;99.90
31747;DHT22;18319;48.974;8.462;2023-03-14T07:17:28;11.70;99.90
31747;DHT22;18319;48.974;8.462;2023-03-14T07:19:55;11.80;99.90
31747;DHT22;18319;48.974;8.462;2023-03-14T07:22:22;11.80;99.90
31747;DHT22;18319;48.974;8.462;2023-03-14T07:24:48;11.90;99.90
31747;DHT22;18319;48.974;8.462;2023-03-14T07:27:15;12.10;99.90
31747;DHT22;18319;48.974;8.462;2023-03-14T07:29:42;12.10;99.90
31747;DHT22;18319;48.974;8.462;2023-03-14T07:32:09;12.20;99.90
31747;DHT22;18319;48.974;8.462;2023-03-14T07:34:41;12.30;99.90
31747;DHT22;18319;48.974;8.462;2023-03-14T07:37:08;12.30;99.90
31747;DHT22;18319;48.974;8.462;2023-03-14T07:39:35;12.40;99.90
31747;DHT22;18319;48.974;8.462;2023-03-14T07:42:02;12.40;99.90
31747;DHT22;18319;48.974;8.462;2023-03-14T07:44:28;12.50;99.90
31747;DHT22;18319;48.974;8.462;2023-03-14T07:46:55;12.70;99.90
31747;DHT22;18319;48.974;8.462;2023-03-14T07:49:22;12.70;99.90
31747;DHT22;18319;48.974;8.462;2023-03-14T07:51:50;12.80;99.90
31747;DHT22;18319;48.974;8.462;2023-03-14T07:54:17;12.80;99.90
31747;DHT22;18319;48.974;8.462;2023-03-14T07:56:44;12.90;99.90
31747;DHT22;18319;48.974;8.462;2023-03-14T07:59:11;13.00;99.90
31747;DHT22;18319;48.974;8.462;2023-03-14T08:01:38;13.20;99.90
31747;DHT22;18319;48.974;8.462;2023-03-14T08:04:05;13.40;99.90
31747;DHT22;18319;48.974;8.462;2023-03-14T08:06:31;13.70;99.90
31747;DHT22;18319;48.974;8.462;2023-03-14T08:09:00;13.80;99.90
31747;DHT22;18319;48.974;8.462;2023-03-14T08:11:26;13.70;99.90
31747;DHT22;18319;48.974;8.462;2023-03-14T08:13:53;13.70;99.90
31747;DHT22;18319;48.974;8.462;2023-03-14T08:16:21;13.70;99.90
31747;DHT22;18319;48.974;8.462;2023-03-14T08:18:48;13.60;99.90
31747;DHT22;18319;48.974;8.462;2023-03-14T08:21:15;13.70;99.90
31747;DHT22;18319;48.974;8.462;2023-03-14T08:23:42;13.60;99.90
31747;DHT22;18319;48.974;8.462;2023-03-14T08:26:10;13.70;99.90
31747;DHT22;18319;48.974;8.462;2023-03-14T08:28:37;13.80;99.90
31747;DHT22;18319;48.974;8.462;2023-03-14T08:31:04;13.70;99.90
31747;DHT22;18319;48.974;8.462;2023-03-14T08:33:31;13.80;99.90
31747;DHT22;18319;48.974;8.462;2023-03-14T08:36:00;13.80;99.90
31747;DHT22;18319;48.974;8.462;2023-03-14T08:38:27;13.70;99.90
31747;DHT22;18319;48.974;8.462;2023-03-14T08:40:58;13.70;99.90
31747;DHT22;18319;48.974;8.462;2023-03-14T08:43:27;13.70;99.90
31747;DHT22;18319;48.974;8.462;2023-03-14T08:45:57;13.70;99.90
31747;DHT22;18319;48.974;8.462;2023-03-14T08:48:24;13.70;99.90
31747;DHT22;18319;48.974;8.462;2023-03-14T08:50:51;13.70;99.90
31747;DHT22;18319;48.974;8.462;2023-03-14T08:53:17;13.60;99.90
31747;DHT22;18319;48.974;8.462;2023-03-14T08:55:46;13.60;99.90
31747;DHT22;18319;48.974;8.462;2023-03-14T08:58:13;13.70;99.90
31747;DHT22;18319;48.974;8.462;2023-03-14T09:00:41;13.70;99.90
31747;DHT22;18319;48.974;8.462;2023-03-14T09:03:08;14.00;99.90
31747;DHT22;18319;48.974;8.462;2023-03-14T09:05:34;14.00;99.90
31747;DHT22;18319;48.974;8.462;2023-03-14T09:08:01;14.00;99.90
31747;DHT22;18319;48.974;8.462;2023-03-14T09:10:29;14.00;99.90
31747;DHT22;18319;48.974;8.462;2023-03-14T09:12:56;13.80;99.90
31747;DHT22;18319;48.974;8.462;2023-03-14T09:15:23;13.70;99.90
31747;DHT22;18319;48.974;8.462;2023-03-14T09:17:52;13.60;99.90
31747;DHT22;18319;48.974;8.462;2023-03-14T09:20:19;13.60;99.90
31747;DHT22;18319;48.974;8.462;2023-03-14T09:22:46;13.70;99.90
31747;DHT22;18319;48.974;8.462;2023-03-14T09:25:12;13.70;99.90
31747;DHT22;18319;48.974;8.462;2023-03-14T09:27:39;13.90;99.90
31747;DHT22;18319;48.974;8.462;2023-03-14T09:30:07;14.10;99.90
31747;DHT22;18319;48.974;8.462;2023-03-14T09:32:34;14.10;99.90
31747;DHT22;18319;48.974;8.462;2023-03-14T09:35:02;14.20;99.90
31747;DHT22;18319;48.974;8.462;2023-03-14T09:37:29;14.40;99.90
31747;DHT22;18319;48.974;8.462;2023-03-14T09:39:56;14.40;99.90
31747;DHT22;18319;48.974;8.462;2023-03-14T09:42:26;14.50;99.90
31747;DHT22;18319;48.974;8.462;2023-03-14T09:44:56;14.50;99.90
31747;DHT22;18319;48.974;8.462;2023-03-14T09:47:23;14.40;99.90
31747;DHT22;18319;48.974;8.462;2023-03-14T09:49:51;14.40;99.90
31747;DHT22;18319;48.974;8.462;2023-03-14T09:52:23;14.40;99.90
31747;DHT22;18319;48.974;8.462;2023-03-14T09:54:52;14.30;99.90
31747;DHT22;18319;48.974;8.462;2023-03-14T09:57:23;14.10;99.90
31747;DHT22;18319;48.974;8.462;2023-03-14T09:59:51;14.10;99.90
31747;DHT22;18319;48.974;8.462;2023-03-14T10:02:20;14.20;99.90
31747;DHT22;18319;48.974;8.462;2023-03-14T10:04:49;14.20;99.90
31747;DHT22;18319;48.974;8.462;2023-03-14T10:07:18;14.20;99.90
31747;DHT22;18319;48.974;8.462;2023-03-14T10:09:50;14.10;99.90
31747;DHT22;18319;48.974;8.462;2023-03-14T10:12:18;14.20;99.90
31747;DHT22;18319;48.974;8.462;2023-03-14T10:14:47;14.10;99.90
31747;DHT22;18319;48.974;8.462;2023-03-14T10:17:15;14.20;99.90
31747;DHT22;18319;48.974;8.462;2023-03-14T10:19:54;14.00;99.90
31747;DHT22;18319;48.974;8.462;2023-03-14T10:22:21;14.20;99.90
31747;DHT22;18319;48.974;8.462;2023-03-14T10:24:54;14.30;99.90
31747;DHT22;18319;48.974;8.462;2023-03-14T10:27:28;14.20;99.90
31747;DHT22;18319;48.974;8.462;2023-03-14T10:29:57;14.10;99.90
31747;DHT22;18319;48.974;8.462;2023-03-14T10:32:32;14.10;99.90
31747;DHT22;18319;48.974;8.462;2023-03-14T10:35:11;14.10;99.90
31747;DHT22;18319;48.974;8.462;2023-03-14T10:37:50;14.10;99.90
31747;DHT22;18319;48.974;8.462;2023-03-14T10:40:20;13.90;99.90
31747;DHT22;18319;48.974;8.462;2023-03-14T10:42:50;13.80;99.90
31747;DHT22;18319;48.974;8.462;2023-03-14T10:45:31;13.80;99.90
31747;DHT22;18319;48.974;8.462;2023-03-14T10:47:59;13.80;99.90
31747;DHT22;18319;48.974;8.462;2023-03-14T10:50:29;13.80;99.90
31747;DHT22;18319;48.974;8.462;2023-03-14T10:52:57;13.80;99.90
31747;DHT22;18319;48.974;8.462;2023-03-14T10:55:40;13.40;99.90
31747;DHT22;18319;48.974;8.462;2023-03-14T10:58:21;13.10;99.90
31747;DHT22;18319;48.974;8.462;2023-03-14T11:00:54;12.90;99.90
31747;DHT22;18319;48.974;8.462;2023-03-14T11:03:23;12.70;99.90
31747;DHT22;18319;48.974;8.462;2023-03-14T11:05:55;12.60;99.90
31747;DHT22;18319;48.974;8.462;2023-03-14T11:08:27;12.50;99.90
31747;DHT22;18319;48.974;8.462;2023-03-14T11:11:11;12.40;99.90
31747;DHT22;18319;48.974;8.462;2023-03-14T11:13:45;12.40;99.90
31747;DHT22;18319;48.974;8.462;2023-03-14T11:16:24;12.20;99.90
31747;DHT22;18319;48.974;8.462;2023-03-14T11:19:03;12.00;99.90
31747;DHT22;18319;48.974;8.462;2023-03-14T11:21:36;11.90;99.90
31747;DHT22;18319;48.974;8.462;2023-03-14T11:24:18;11.60;99.90
31747;DHT22;18319;48.974;8.462;2023-03-14T11:26:56;11.50;99.90
31747;DHT22;18319;48.974;8.462;2023-03-14T11:29:30;11.40;99.90
31747;DHT22;18319;48.974;8.462;2023-03-14T11:32:12;11.40;99.90
31747;DHT22;18319;48.974;8.462;2023-03-14T11:34:45;11.60;99.90
31747;DHT22;18319;48.974;8.462;2023-03-14T11:37:22;11.50;99.90
31747;DHT22;18319;48.974;8.462;2023-03-14T11:39:56;11.60;99.90
31747;DHT22;18319;48.974;8.462;2023-03-14T11:42:29;11.60;99.90
31747;DHT22;18319;48.974;8.462;2023-03-14T11:44:59;11.60;99.90
31747;DHT22;18319;48.974;8.462;2023-03-14T11:47:29;11.60;99.90
31747;DHT22;18319;48.974;8.462;2023-03-14T11:50:02;11.50;99.90
31747;DHT22;18319;48.974;8.462;2023-03-14T11:52:32;11.30;99.90
31747;DHT22;18319;48.974;8.462;2023-03-14T11:55:05;11.20;99.90
31747;DHT22;18319;48.974;8.462;2023-03-14T11:57:35;11.00;99.90
31747;DHT22;18319;48.974;8.462;2023-03-14T12:00:04;10.70;99.90
31747;DHT22;18319;48.974;8.462;2023-03-14T12:02:43;10.60;99.90
31747;DHT22;18319;48.974;8.462;2023-03-14T12:05:34;10.60;99.90
31747;DHT22;18319;48.974;8.462;2023-03-14T12:11:16;10.50;99.90
31747;DHT22;18319;48.974;8.462;2023-03-14T12:13:48;10.50;99.90
31747;DHT22;18319;48.974;8.462;2023-03-14T12:16:35;10.60;99.90
31747;DHT22;18319;48.974;8.462;2023-03-14T12:19:33;10.60;99.90
31747;DHT22;18319;48.974;8.462;2023-03-14T12:24:59;10.90;99.90
31747;DHT22;18319;48.974;8.462;2023-03-14T12:30:40;11.10;99.90
31747;DHT22;18319;48.974;8.462;2023-03-14T12:33:26;11.20;99.90
31747;DHT22;18319;48.974;8.462;2023-03-14T12:35:58;11.30;99.90
31747;DHT22;18319;48.974;8.462;2023-03-14T12:38:32;11.60;99.90
31747;DHT22;18319;48.974;8.462;2023-03-14T12:41:12;11.80;99.90
31747;DHT22;18319;48.974;8.462;2023-03-14T12:43:40;11.80;99.90
31747;DHT22;18319;48.974;8.462;2023-03-14T12:46:19;11.70;99.90
31747;DHT22;18319;48.974;8.462;2023-03-14T12:48:48;11.80;99.90
31747;DHT22;18319;48.974;8.462;2023-03-14T12:51:17;11.70;99.90
31747;DHT22;18319;48.974;8.462;2023-03-14T12:56:49;11.60;99.90
31747;DHT22;18319;48.974;8.462;2023-03-14T12:59:29;11.50;99.90
31747;DHT22;18319;48.974;8.462;2023-03-14T13:02:01;11.40;99.90
31747;DHT22;18319;48.974;8.462;2023-03-14T13:04:31;11.60;99.90
31747;DHT22;18319;48.974;8.462;2023-03-14T13:07:00;11.80;99.90
31747;DHT22;18319;48.974;8.462;2023-03-14T13:09:53;12.20;99.90
31747;DHT22;18319;48.974;8.462;2023-03-14T13:12:30;12.10;99.90
31747;DHT22;18319;48.974;8.462;2023-03-14T13:15:01;12.10;99.90
31747;DHT22;18319;48.974;8.462;2023-03-14T13:17:33;12.10;99.90
31747;DHT22;18319;48.974;8.462;2023-03-14T13:20:03;12.40;99.90
31747;DHT22;18319;48.974;8.462;2023-03-14T13:22:33;12.30;99.90
31747;DHT22;18319;48.974;8.462;2023-03-14T13:25:04;12.30;99.90
31747;DHT22;18319;48.974;8.462;2023-03-14T13:27:33;12.10;99.90
31747;DHT22;18319;48.974;8.462;2023-03-14T13:30:13;11.90;99.90
31747;DHT22;18319;48.974;8.462;2023-03-14T13:32:43;11.90;99.90
31747;DHT22;18319;48.974;8.462;2023-03-14T13:35:16;11.70;99.90
31747;DHT22;18319;48.974;8.462;2023-03-14T13:37:43;11.70;99.90
31747;DHT22;18319;48.974;8.462;2023-03-14T13:40:19;11.60;99.90
31747;DHT22;18319;48.974;8.462;2023-03-14T13:42:46;11.50;99.90
31747;DHT22;18319;48.974;8.462;2023-03-14T13:45:14;11.30;99.90
31747;DHT22;18319;48.974;8.462;2023-03-14T13:47:42;11.10;99.90
31747;DHT22;18319;48.974;8.462;2023-03-14T13:50:15;10.90;99.90
31747;DHT22;18319;48.974;8.462;2023-03-14T13:52:43;10.90;99.90
31747;DHT22;18319;48.974;8.462;2023-03-14T13:55:15;10.90;99.90
31747;DHT22;18319;48.974;8.462;2023-03-14T13:57:44;10.80;99.90
31747;DHT22;18319;48.974;8.462;2023-03-14T14:00:18;10.70;99.90
31747;DHT22;18319;48.974;8.462;2023-03-14T14:02:47;10.90;99.90
31747;DHT22;18319;48.974;8.462;2023-03-14T14:05:15;11.00;99.90
31747;DHT22;18319;48.974;8.462;2023-03-14T14:07:43;11.20;99.90
31747;DHT22;18319;48.974;8.462;2023-03-14T14:10:11;11.40;99.90
31747;DHT22;18319;48.974;8.462;2023-03-14T14:12:41;11.50;99.90
31747;DHT22;18319;48.974;8.462;2023-03-14T14:15:13;11.40;99.90
31747;DHT22;18319;48.974;8.462;2023-03-14T14:17:44;11.40;99.90
31747;DHT22;18319;48.974;8.462;2023-03-14T14:20:20;11.40;99.90
31747;DHT22;18319;48.974;8.462;2023-03-14T14:22:48;11.40;99.90
31747;DHT22;18319;48.974;8.462;2023-03-14T14:25:15;11.20;99.90
31747;DHT22;18319;48.974;8.462;2023-03-14T14:27:44;11.10;99.90
31747;DHT22;18319;48.974;8.462;2023-03-14T14:30:28;11.10;99.90
31747;DHT22;18319;48.974;8.462;2023-03-14T14:33:11;11.10;99.90
31747;DHT22;18319;48.974;8.462;2023-03-14T14:35:40;11.20;99.90
31747;DHT22;18319;48.974;8.462;2023-03-14T14:38:12;11.30;99.90
31747;DHT22;18319;48.974;8.462;2023-03-14T14:40:47;11.40;99.90
31747;DHT22;18319;48.974;8.462;2023-03-14T14:43:18;11.40;99.90
31747;DHT22;18319;48.974;8.462;2023-03-14T14:45:48;11.50;99.90
31747;DHT22;18319;48.974;8.462;2023-03-14T14:48:19;11.40;99.90
31747;DHT22;18319;48.974;8.462;2023-03-14T14:50:56;11.40;99.90
31747;DHT22;18319;48.974;8.462;2023-03-14T14:53:28;11.30;99.90
31747;DHT22;18319;48.974;8.462;2023-03-14T14:55:57;11.20;99.90
31747;DHT22;18319;48.974;8.462;2023-03-14T14:58:26;11.00;99.90
31747;DHT22;18319;48.974;8.462;2023-03-14T15:00:56;10.90;99.90
31747;DHT22;18319;48.974;8.462;2023-03-14T15:03:26;10.90;99.90
31747;DHT22;18319;48.974;8.462;2023-03-14T15:05:55;10.90;99.90
31747;DHT22;18319;48.974;8.462;2023-03-14T15:08:23;10.90;99.90
31747;DHT22;18319;48.974;8.462;2023-03-14T15:10:50;10.70;99.90
31747;DHT22;18319;48.974;8.462;2023-03-14T15:13:17;10.70;99.90
31747;DHT22;18319;48.974;8.462;2023-03-14T15:15:44;10.60;99.90
31747;DHT22;18319;48.974;8.462;2023-03-14T15:18:13;10.60;99.90
31747;DHT22;18319;48.974;8.462;2023-03-14T15:20:41;10.50;99.90
31747;DHT22;18319;48.974;8.462;2023-03-14T15:23:11;10.50;99.90
31747;DHT22;18319;48.974;8.462;2023-03-14T15:25:38;10.40;99.90
31747;DHT22;18319;48.974;8.462;2023-03-14T15:28:20;10.40;99.90
31747;DHT22;18319;48.974;8.462;2023-03-14T15:30:48;10.50;99.90
31747;DHT22;18319;48.974;8.462;2023-03-14T15:33:15;10.50;99.90
31747;DHT22;18319;48.974;8.462;2023-03-14T15:35:42;10.50;99.90
31747;DHT22;18319;48.974;8.462;2023-03-14T15:38:15;10.50;99.90
31747;DHT22;18319;48.974;8.462;2023-03-14T15:40:42;10.50;99.90
31747;DHT22;18319;48.974;8.462;2023-03-14T15:43:09;10.40;99.90
31747;DHT22;18319;48.974;8.462;2023-03-14T15:45:36;10.30;99.90
31747;DHT22;18319;48.974;8.462;2023-03-14T15:48:03;10.30;99.90
31747;DHT22;18319;48.974;8.462;2023-03-14T15:50:30;10.20;99.90
31747;DHT22;18319;48.974;8.462;2023-03-14T15:52:57;10.10;99.90
31747;DHT22;18319;48.974;8.462;2023-03-14T15:55:25;10.00;99.90
31747;DHT22;18319;48.974;8.462;2023-03-14T15:57:52;9.90;99.90
31747;DHT22;18319;48.974;8.462;2023-03-14T16:00:20;9.80;99.90
31747;DHT22;18319;48.974;8.462;2023-03-14T16:02:48;9.80;99.90